createdAt,value
2023-05-24T00:01:48.786Z,100.00
2023-05-24T00:04:53.447Z,100.00
2023-05-24T00:07:56.450Z,100.00
2023-05-24T00:10:59.511Z,100.00
2023-05-24T00:14:04.614Z,100.00
2023-05-24T00:17:07.388Z,100.00
2023-05-24T00:20:12.556Z,100.00
2023-05-24T00:23:15.363Z,100.00
2023-05-24T00:26:18.332Z,100.00
2023-05-24T00:29:31.434Z,100.00
2023-05-24T00:32:36.273Z,100.00
2023-05-24T00:35:39.604Z,100.00
2023-05-24T00:38:42.547Z,100.00
2023-05-24T00:41:45.476Z,100.00
2023-05-24T00:44:48.434Z,100.00
2023-05-24T00:47:51.251Z,100.00
2023-05-24T00:50:54.142Z,100.00
2023-05-24T00:53:57.263Z,100.00
2023-05-24T00:57:00.327Z,100.00
2023-05-24T01:00:05.718Z,100.00
2023-05-24T01:03:10.770Z,100.00
2023-05-24T01:06:13.865Z,100.00
2023-05-24T01:09:28.811Z,100.00
2023-05-24T01:12:47.553Z,100.00
2023-05-24T01:16:21.986Z,100.00
2023-05-24T01:19:49.522Z,100.00
2023-05-24T01:23:21.944Z,100.00
2023-05-24T01:26:54.647Z,100.00
2023-05-24T01:29:58.715Z,100.00
2023-05-24T01:33:03.499Z,100.00
2023-05-24T01:36:06.850Z,100.00
2023-05-24T01:39:10.252Z,100.00
2023-05-24T01:42:22.527Z,100.00
2023-05-24T01:45:56.996Z,100.00
2023-05-24T01:49:20.745Z,100.00
2023-05-24T01:52:27.091Z,100.00
2023-05-24T01:55:31.956Z,100.00
2023-05-24T01:58:35.613Z,100.00
2023-05-24T02:01:38.995Z,100.00
2023-05-24T02:04:42.174Z,100.00
2023-05-24T02:07:44.903Z,100.00
2023-05-24T02:10:47.702Z,100.00
2023-05-24T02:13:50.409Z,100.00
2023-05-24T02:16:53.612Z,100.00
2023-05-24T02:19:56.693Z,100.00
2023-05-24T02:23:00.449Z,100.00
2023-05-24T02:26:03.155Z,100.00
2023-05-24T02:29:06.611Z,100.00
2023-05-24T02:32:09.599Z,100.00
2023-05-24T02:35:12.719Z,100.00
2023-05-24T02:38:15.615Z,100.00
2023-05-24T02:41:19.566Z,100.00
2023-05-24T02:44:22.477Z,100.00
2023-05-24T02:47:27.333Z,100.00
2023-05-24T02:50:30.222Z,100.00
2023-05-24T02:53:33.742Z,100.00
2023-05-24T02:56:37.767Z,100.00
2023-05-24T02:59:40.613Z,100.00
2023-05-24T03:02:43.457Z,100.00
2023-05-24T03:05:46.458Z,100.00
2023-05-24T03:08:50.143Z,100.00
2023-05-24T03:11:54.779Z,100.00
2023-05-24T03:14:57.792Z,100.00
2023-05-24T03:18:01.277Z,100.00
2023-05-24T03:21:04.508Z,100.00
2023-05-24T03:24:07.674Z,100.00
2023-05-24T03:27:10.902Z,100.00
2023-05-24T03:30:13.973Z,100.00
2023-05-24T03:33:25.757Z,100.00
2023-05-24T03:36:31.504Z,100.00
2023-05-24T03:39:34.436Z,100.00
2023-05-24T03:42:51.278Z,100.00
2023-05-24T03:45:56.017Z,100.00
2023-05-24T03:48:58.955Z,100.00
2023-05-24T03:52:01.814Z,100.00
2023-05-24T03:55:05.022Z,100.00
2023-05-24T03:58:07.758Z,100.00
2023-05-24T04:01:21.936Z,98.58
2023-05-24T04:04:32.499Z,99.58
2023-05-24T04:07:35.406Z,98.11
2023-05-24T04:10:38.533Z,96.55
2023-05-24T04:13:41.749Z,87.55
2023-05-24T04:16:45.336Z,82.78
2023-05-24T04:19:48.389Z,78.08
2023-05-24T04:22:51.986Z,78.57
2023-05-24T04:25:55.144Z,79.97
2023-05-24T04:28:58.334Z,83.33
2023-05-24T04:32:01.480Z,86.48
2023-05-24T04:35:04.856Z,88.99
2023-05-24T04:38:08.104Z,92.96
2023-05-24T04:41:12.242Z,93.16
2023-05-24T04:44:15.295Z,95.61
2023-05-24T04:47:18.178Z,97.40
2023-05-24T04:50:21.001Z,98.01
2023-05-24T04:53:24.106Z,99.76
2023-05-24T04:56:27.419Z,100.00
2023-05-24T04:59:30.575Z,100.00
2023-05-24T05:02:33.471Z,100.00
2023-05-24T05:05:36.704Z,100.00
2023-05-24T05:08:39.606Z,100.00
2023-05-24T05:11:42.402Z,100.00
2023-05-24T05:14:45.396Z,98.78
2023-05-24T05:17:48.421Z,96.71
2023-05-24T05:20:52.287Z,94.21
2023-05-24T05:23:55.083Z,94.15
2023-05-24T05:26:58.211Z,93.16
2023-05-24T05:30:01.211Z,91.64
2023-05-24T05:33:06.416Z,89.71
2023-05-24T05:36:09.222Z,89.22
2023-05-24T05:39:12.218Z,90.61
2023-05-24T05:42:14.959Z,89.01
2023-05-24T05:45:17.711Z,89.52
2023-05-24T05:48:20.430Z,86.45
2023-05-24T05:51:23.125Z,86.49
2023-05-24T05:54:26.903Z,87.19
2023-05-24T05:57:29.729Z,87.38
2023-05-24T06:00:32.510Z,87.53
2023-05-24T06:03:35.484Z,85.45
2023-05-24T06:06:38.399Z,84.24
2023-05-24T06:09:41.587Z,84.05
2023-05-24T06:12:44.817Z,82.61
2023-05-24T06:15:47.939Z,85.04
2023-05-24T06:19:04.671Z,82.93
2023-05-24T06:22:09.156Z,82.58
2023-05-24T06:25:15.201Z,82.22
2023-05-24T06:28:18.290Z,81.20
2023-05-24T06:31:21.466Z,80.57
2023-05-24T06:34:24.675Z,82.10
2023-05-24T06:37:31.810Z,83.25
2023-05-24T06:40:34.603Z,82.99
2023-05-24T06:43:37.506Z,82.70
2023-05-24T06:46:41.207Z,83.78
2023-05-24T06:49:44.217Z,84.75
2023-05-24T06:52:46.985Z,85.36
2023-05-24T06:55:50.007Z,86.01
2023-05-24T06:58:53.160Z,87.65
2023-05-24T07:01:59.509Z,87.34
2023-05-24T07:05:04.055Z,87.40
2023-05-24T07:08:07.491Z,85.70
2023-05-24T07:11:10.659Z,84.36
2023-05-24T07:14:13.723Z,83.41
2023-05-24T07:17:16.695Z,82.32
2023-05-24T07:20:19.816Z,81.25
2023-05-24T07:23:22.738Z,83.57
2023-05-24T07:26:25.780Z,83.71
2023-05-24T07:29:28.918Z,83.28
2023-05-24T07:32:33.558Z,85.05
2023-05-24T07:35:36.815Z,85.50
2023-05-24T07:38:39.979Z,86.57
2023-05-24T07:41:43.062Z,85.66
2023-05-24T07:44:46.199Z,86.74
2023-05-24T07:47:49.082Z,86.55
2023-05-24T07:50:53.195Z,87.63
2023-05-24T07:53:56.523Z,86.62
2023-05-24T07:56:59.569Z,86.70
2023-05-24T08:00:10.507Z,85.55
2023-05-24T08:03:17.847Z,86.45
2023-05-24T08:06:21.121Z,82.95
2023-05-24T08:09:24.106Z,84.11
2023-05-24T08:12:26.942Z,81.28
2023-05-24T08:15:29.913Z,80.67
2023-05-24T08:18:33.577Z,81.56
2023-05-24T08:21:37.695Z,82.08
2023-05-24T08:24:40.957Z,79.97
2023-05-24T08:27:43.944Z,80.61
2023-05-24T08:30:46.869Z,79.50
2023-05-24T08:33:52.718Z,78.56
2023-05-24T08:36:56.430Z,77.06
2023-05-24T08:39:59.967Z,78.88
2023-05-24T08:43:03.304Z,76.22
2023-05-24T08:46:06.961Z,78.98
2023-05-24T08:49:12.941Z,79.45
2023-05-24T08:52:16.824Z,79.05
2023-05-24T08:55:20.134Z,79.42
2023-05-24T08:58:22.918Z,78.17
2023-05-24T09:01:27.748Z,79.07
2023-05-24T09:04:34.362Z,78.64
2023-05-24T09:07:37.712Z,78.19
2023-05-24T09:10:53.174Z,77.57
2023-05-24T09:13:58.300Z,78.32
2023-05-24T09:17:01.482Z,77.77
2023-05-24T09:20:07.540Z,75.69
2023-05-24T09:23:11.533Z,73.18
2023-05-24T09:26:14.576Z,72.30
2023-05-24T09:29:17.396Z,73.12
2023-05-24T09:32:24.603Z,69.62
2023-05-24T09:35:28.668Z,69.54
2023-05-24T09:38:31.703Z,67.90
2023-05-24T09:41:34.696Z,68.11
2023-05-24T09:44:37.722Z,69.32
2023-05-24T09:47:41.723Z,67.50
2023-05-24T09:50:47.816Z,68.21
2023-05-24T09:53:53.050Z,70.35
2023-05-24T09:56:56.263Z,67.47
2023-05-24T10:00:15.040Z,69.06
2023-05-24T10:03:18.163Z,68.74
2023-05-24T10:06:21.951Z,68.20
2023-05-24T10:09:25.613Z,66.02
2023-05-24T10:12:31.685Z,68.02
2023-05-24T10:15:34.721Z,69.88
2023-05-24T10:18:37.654Z,68.81
2023-05-24T10:21:43.557Z,68.37
2023-05-24T10:24:51.206Z,67.31
2023-05-24T10:28:03.899Z,66.33
2023-05-24T10:31:13.833Z,67.18
2023-05-24T10:34:19.138Z,67.78
2023-05-24T10:37:22.037Z,65.46
2023-05-24T10:40:27.948Z,65.31
2023-05-24T10:43:31.087Z,68.56
2023-05-24T10:46:34.333Z,69.47
2023-05-24T10:49:38.257Z,69.76
2023-05-24T10:52:42.315Z,69.89
2023-05-24T10:55:59.051Z,71.07
2023-05-24T10:59:06.616Z,71.52
2023-05-24T11:02:14.231Z,68.62
2023-05-24T11:05:17.532Z,71.13
2023-05-24T11:08:23.674Z,68.84
2023-05-24T11:11:32.065Z,68.89
2023-05-24T11:14:42.984Z,70.21
2023-05-24T11:18:14.285Z,66.23
2023-05-24T11:21:17.550Z,65.56
2023-05-24T11:24:22.386Z,66.70
2023-05-24T11:27:26.034Z,66.70
2023-05-24T11:30:29.281Z,67.84
2023-05-24T11:33:32.525Z,67.92
2023-05-24T11:36:37.836Z,67.51
2023-05-24T11:39:40.808Z,68.13
2023-05-24T11:42:44.955Z,67.71
2023-05-24T11:45:50.261Z,65.13
2023-05-24T11:49:00.209Z,66.29
2023-05-24T11:52:04.271Z,66.10
2023-05-24T11:55:08.273Z,65.03
2023-05-24T11:58:17.549Z,64.60
2023-05-24T12:01:27.760Z,65.44
2023-05-24T12:04:31.577Z,63.20
2023-05-24T12:07:34.882Z,64.04
2023-05-24T12:10:38.954Z,66.29
2023-05-24T12:13:42.005Z,64.66
2023-05-24T12:16:45.839Z,64.86
2023-05-24T12:19:52.496Z,62.40
2023-05-24T12:22:56.833Z,63.93
2023-05-24T12:26:03.421Z,63.29
2023-05-24T12:29:06.427Z,65.48
2023-05-24T12:32:15.208Z,64.41
2023-05-24T12:35:19.011Z,63.16
2023-05-24T12:38:25.882Z,63.72
2023-05-24T12:41:32.032Z,64.11
2023-05-24T12:44:37.036Z,65.30
2023-05-24T12:47:39.830Z,64.12
2023-05-24T12:50:43.106Z,65.86
2023-05-24T12:53:46.897Z,64.54
2023-05-24T12:56:50.649Z,63.94
2023-05-24T12:59:54.208Z,64.71
2023-05-24T13:02:59.369Z,64.58
2023-05-24T13:06:02.622Z,65.26
2023-05-24T13:09:06.946Z,62.69
2023-05-24T13:12:10.364Z,63.07
2023-05-24T13:15:14.387Z,61.82
2023-05-24T13:18:17.664Z,62.70
2023-05-24T13:21:20.970Z,62.69
2023-05-24T13:24:23.780Z,62.53
2023-05-24T13:27:27.031Z,62.40
2023-05-24T13:30:30.392Z,63.98
2023-05-24T13:33:36.255Z,63.61
2023-05-24T13:36:39.691Z,61.89
2023-05-24T13:39:42.940Z,61.33
2023-05-24T13:42:45.934Z,62.76
2023-05-24T13:45:48.887Z,62.89
2023-05-24T13:48:51.927Z,62.70
2023-05-24T13:51:58.228Z,62.70
2023-05-24T13:55:05.141Z,61.77
2023-05-24T13:58:08.219Z,62.53
2023-05-24T14:01:11.231Z,62.24
2023-05-24T14:04:14.322Z,62.77
2023-05-24T14:07:17.182Z,63.70
2023-05-24T14:10:21.586Z,64.48
2023-05-24T14:14:13.753Z,63.99
2023-05-24T14:16:52.277Z,63.98
2023-05-24T14:19:55.512Z,63.21
2023-05-24T14:22:58.676Z,63.97
2023-05-24T14:26:02.198Z,64.24
2023-05-24T14:29:05.941Z,63.53
2023-05-24T14:32:10.295Z,62.36
2023-05-24T14:35:13.082Z,62.43
2023-05-24T14:38:16.091Z,62.89
2023-05-24T14:41:19.129Z,61.84
2023-05-24T14:44:22.065Z,62.22
2023-05-24T14:47:25.239Z,61.72
2023-05-24T14:50:28.067Z,61.73
2023-05-24T14:53:30.997Z,60.66
2023-05-24T14:56:34.293Z,61.31
2023-05-24T14:59:37.316Z,61.98
2023-05-24T15:02:40.399Z,61.61
2023-05-24T15:05:43.638Z,62.54
2023-05-24T15:08:47.068Z,62.27
2023-05-24T15:11:50.448Z,62.25
2023-05-24T15:14:53.550Z,62.27
2023-05-24T15:17:57.672Z,61.92
2023-05-24T15:21:00.711Z,61.44
2023-05-24T15:24:03.745Z,62.02
2023-05-24T15:27:06.766Z,62.45
2023-05-24T15:30:09.603Z,61.67
2023-05-24T15:33:12.708Z,61.74
2023-05-24T15:36:17.664Z,61.64
2023-05-24T15:39:21.581Z,62.29
2023-05-24T15:42:25.666Z,61.07
2023-05-24T15:45:28.657Z,62.01
2023-05-24T15:48:31.870Z,62.32
2023-05-24T15:52:03.070Z,60.85
2023-05-24T15:54:57.740Z,60.99
2023-05-24T15:58:01.444Z,61.65
2023-05-24T16:01:04.717Z,61.40
2023-05-24T16:04:07.933Z,59.76
2023-05-24T16:07:12.336Z,60.38
2023-05-24T16:10:15.302Z,61.52
2023-05-24T16:13:18.258Z,60.71
2023-05-24T16:16:23.999Z,61.31
2023-05-24T16:19:27.100Z,61.83
2023-05-24T16:22:30.488Z,62.24
2023-05-24T16:25:33.233Z,62.44
2023-05-24T16:28:36.550Z,63.75
2023-05-24T16:31:39.719Z,64.04
2023-05-24T16:34:56.080Z,63.93
2023-05-24T16:38:00.234Z,63.92
2023-05-24T16:41:03.409Z,64.18
2023-05-24T16:44:06.762Z,64.68
2023-05-24T16:47:09.850Z,64.50
2023-05-24T16:50:15.800Z,63.52
2023-05-24T16:53:20.853Z,64.35
2023-05-24T16:56:23.917Z,64.40
2023-05-24T16:59:26.930Z,64.59
2023-05-24T17:02:30.099Z,64.49
2023-05-24T17:05:36.166Z,64.59
2023-05-24T17:08:39.179Z,65.50
2023-05-24T17:11:41.932Z,64.97
2023-05-24T17:14:45.870Z,65.61
2023-05-24T17:17:48.761Z,65.13
2023-05-24T17:20:52.381Z,66.11
2023-05-24T17:23:56.316Z,65.64
2023-05-24T17:26:59.701Z,66.73
2023-05-24T17:30:02.994Z,68.00
2023-05-24T17:33:06.146Z,68.75
2023-05-24T17:36:10.080Z,68.88
2023-05-24T17:39:13.354Z,68.81
2023-05-24T17:42:17.924Z,71.04
2023-05-24T17:45:21.297Z,71.76
2023-05-24T17:48:26.288Z,72.48
2023-05-24T17:51:29.390Z,73.78
2023-05-24T17:54:32.378Z,74.23
2023-05-24T17:57:35.874Z,74.13
2023-05-24T18:00:38.936Z,75.05
2023-05-24T18:03:43.182Z,75.04
2023-05-24T18:06:46.378Z,76.87
2023-05-24T18:09:49.257Z,76.91
2023-05-24T18:12:52.251Z,77.25
2023-05-24T18:15:57.471Z,78.75
2023-05-24T18:19:02.996Z,77.91
2023-05-24T18:22:06.560Z,79.06
2023-05-24T18:25:09.956Z,79.10
2023-05-24T18:28:13.312Z,78.86
2023-05-24T18:31:16.647Z,80.13
2023-05-24T18:34:19.984Z,79.57
2023-05-24T18:37:23.580Z,80.49
2023-05-24T18:40:26.759Z,80.52
2023-05-24T18:43:30.110Z,81.14
2023-05-24T18:46:33.559Z,81.43
2023-05-24T18:49:37.327Z,80.84
2023-05-24T18:52:40.697Z,80.91
2023-05-24T18:55:43.789Z,80.95
2023-05-24T18:58:50.209Z,81.93
2023-05-24T19:01:58.579Z,82.74
2023-05-24T19:05:01.795Z,82.59
2023-05-24T19:08:04.788Z,82.75
2023-05-24T19:11:08.131Z,83.14
2023-05-24T19:14:12.917Z,82.99
2023-05-24T19:17:15.849Z,82.98
2023-05-24T19:20:18.809Z,82.85
2023-05-24T19:23:21.816Z,85.00
2023-05-24T19:26:24.804Z,85.47
2023-05-24T19:29:28.354Z,85.55
2023-05-24T19:32:31.584Z,84.84
2023-05-24T19:35:35.402Z,85.73
2023-05-24T19:38:38.310Z,85.89
2023-05-24T19:41:41.719Z,86.32
2023-05-24T19:44:44.636Z,86.52
2023-05-24T19:47:47.489Z,86.71
2023-05-24T19:50:51.049Z,87.00
2023-05-24T19:53:53.746Z,86.84
2023-05-24T19:56:58.215Z,88.12
2023-05-24T20:00:01.346Z,86.52
2023-05-24T20:03:06.458Z,87.47
2023-05-24T20:06:09.259Z,88.46
2023-05-24T20:09:12.372Z,87.79
2023-05-24T20:12:15.435Z,88.77
2023-05-24T20:15:18.414Z,88.16
2023-05-24T20:18:21.144Z,88.13
2023-05-24T20:21:24.101Z,88.43
2023-05-24T20:24:27.207Z,88.93
2023-05-24T20:27:30.057Z,89.41
2023-05-24T20:30:33.814Z,89.53
2023-05-24T20:33:38.581Z,89.84
2023-05-24T20:36:43.561Z,90.41
2023-05-24T20:39:49.700Z,90.78
2023-05-24T20:42:52.976Z,91.07
2023-05-24T20:45:55.932Z,91.52
2023-05-24T20:48:58.834Z,91.16
2023-05-24T20:52:02.037Z,91.00
2023-05-24T20:55:05.237Z,91.96
2023-05-24T20:58:08.104Z,91.64
2023-05-24T21:01:11.211Z,91.10
2023-05-24T21:04:14.814Z,92.16
2023-05-24T21:07:17.718Z,92.29
2023-05-24T21:10:23.321Z,91.72
2023-05-24T21:13:27.390Z,91.94
2023-05-24T21:16:30.419Z,92.32
2023-05-24T21:19:33.134Z,92.16
2023-05-24T21:22:35.988Z,91.81
2023-05-24T21:25:39.164Z,92.51
2023-05-24T21:28:42.167Z,93.05
2023-05-24T21:31:45.105Z,93.15
2023-05-24T21:34:48.006Z,91.89
2023-05-24T21:37:50.951Z,92.03
2023-05-24T21:40:53.908Z,93.24
2023-05-24T21:43:56.821Z,93.58
2023-05-24T21:46:59.619Z,93.35
2023-05-24T21:50:02.500Z,93.62
2023-05-24T21:53:05.335Z,94.03
2023-05-24T21:56:08.205Z,93.98
2023-05-24T21:59:11.035Z,93.78
2023-05-24T22:02:15.085Z,93.79
2023-05-24T22:05:18.620Z,94.10
2023-05-24T22:08:21.567Z,94.84
2023-05-24T22:11:24.547Z,94.59
2023-05-24T22:14:27.561Z,94.50
2023-05-24T22:17:32.985Z,94.43
2023-05-24T22:20:36.985Z,94.88
2023-05-24T22:23:40.110Z,94.99
2023-05-24T22:26:47.373Z,95.53
2023-05-24T22:29:50.298Z,94.82
2023-05-24T22:32:53.375Z,94.02
2023-05-24T22:35:56.201Z,95.06
2023-05-24T22:39:00.156Z,94.54
2023-05-24T22:42:03.234Z,95.37
2023-05-24T22:45:07.255Z,95.21
2023-05-24T22:48:10.734Z,95.33
2023-05-24T22:51:13.795Z,95.65
2023-05-24T22:54:17.349Z,95.65
2023-05-24T22:57:23.376Z,95.40
2023-05-24T23:00:26.941Z,96.44
2023-05-24T23:03:29.912Z,96.27
2023-05-24T23:06:32.605Z,95.80
2023-05-24T23:09:35.621Z,97.03
2023-05-24T23:12:42.704Z,96.94
2023-05-24T23:15:45.610Z,97.75
2023-05-24T23:18:48.402Z,96.63
2023-05-24T23:21:52.610Z,97.03
2023-05-24T23:24:55.575Z,97.13
2023-05-24T23:27:58.342Z,96.96
2023-05-24T23:31:01.303Z,96.43
2023-05-24T23:34:04.917Z,96.17
2023-05-24T23:37:08.077Z,96.95
2023-05-24T23:40:11.682Z,96.04
2023-05-24T23:43:14.691Z,97.99
2023-05-24T23:46:17.647Z,96.52
2023-05-24T23:49:20.970Z,96.85
2023-05-24T23:52:25.448Z,96.77
2023-05-24T23:55:28.489Z,96.61
2023-05-24T23:58:32.382Z,95.94
